Terminal Aerodrome Forecast
Issued by NWS

Home | Current Version | Previous Version | Text Only | Print | Product List | Glossary On
Versions: 1 2 3 4 5 6 7 8 9 10 11 12
000
FTUS42 KTBW 211100
TAFRSW
TAF
KRSW 211134Z 2112/2212 VRB03KT P6SM FEW250
     FM211400 VRB04KT P6SM SCT030
     FM211700 07005KT P6SM VCTS SCT040CB SCT100 BKN250
     FM212100 VRB05KT P6SM VCTS SCT040CB BKN100
     FM220100 VRB03KT P6SM FEW040 SCT130 BKN250
     FM220400 VRB03KT P6SM SCT250=

USA.gov is the U.S. government's official web portal to all federal, state and local government web resources and services.